sensor_id;sensor_type;location;lat;lon;timestamp;temperature;humidity
44037;DHT22;62488;-37.670;-63.532;2023-04-16T00:00:49;12.20;99.90
44037;DHT22;62488;-37.670;-63.532;2023-04-16T00:03:18;12.20;99.90
44037;DHT22;62488;-37.670;-63.532;2023-04-16T00:05:45;12.10;99.90
44037;DHT22;62488;-37.670;-63.532;2023-04-16T00:08:12;12.10;99.90
44037;DHT22;62488;-37.670;-63.532;2023-04-16T00:10:39;12.10;99.90
44037;DHT22;62488;-37.670;-63.532;2023-04-16T00:13:06;12.10;99.90
44037;DHT22;62488;-37.670;-63.532;2023-04-16T00:15:33;12.00;99.90
44037;DHT22;62488;-37.670;-63.532;2023-04-16T00:18:00;12.00;99.90
44037;DHT22;62488;-37.670;-63.532;2023-04-16T00:20:27;11.90;99.90
44037;DHT22;62488;-37.670;-63.532;2023-04-16T00:22:54;11.90;99.90
44037;DHT22;62488;-37.670;-63.532;2023-04-16T00:25:21;11.80;99.90
44037;DHT22;62488;-37.670;-63.532;2023-04-16T00:27:48;11.80;99.90
44037;DHT22;62488;-37.670;-63.532;2023-04-16T00:30:16;11.70;99.90
44037;DHT22;62488;-37.670;-63.532;2023-04-16T00:32:43;11.70;99.90
44037;DHT22;62488;-37.670;-63.532;2023-04-16T00:35:10;11.70;99.90
44037;DHT22;62488;-37.670;-63.532;2023-04-16T00:37:37;11.60;99.90
44037;DHT22;62488;-37.670;-63.532;2023-04-16T00:40:04;11.60;99.90
44037;DHT22;62488;-37.670;-63.532;2023-04-16T00:42:32;11.60;99.90
44037;DHT22;62488;-37.670;-63.532;2023-04-16T00:45:00;11.60;99.90
44037;DHT22;62488;-37.670;-63.532;2023-04-16T00:47:27;11.50;99.90
44037;DHT22;62488;-37.670;-63.532;2023-04-16T00:49:54;11.40;99.90
44037;DHT22;62488;-37.670;-63.532;2023-04-16T00:52:21;11.40;99.90
44037;DHT22;62488;-37.670;-63.532;2023-04-16T00:54:48;11.40;99.90
44037;DHT22;62488;-37.670;-63.532;2023-04-16T00:57:16;11.30;99.90
44037;DHT22;62488;-37.670;-63.532;2023-04-16T00:59:46;11.30;99.90
44037;DHT22;62488;-37.670;-63.532;2023-04-16T01:02:13;11.20;99.90
44037;DHT22;62488;-37.670;-63.532;2023-04-16T01:04:40;11.20;99.90
44037;DHT22;62488;-37.670;-63.532;2023-04-16T01:07:07;11.20;99.90
44037;DHT22;62488;-37.670;-63.532;2023-04-16T01:09:34;11.20;99.90
44037;DHT22;62488;-37.670;-63.532;2023-04-16T01:12:01;11.20;99.90
44037;DHT22;62488;-37.670;-63.532;2023-04-16T01:14:28;11.20;99.90
44037;DHT22;62488;-37.670;-63.532;2023-04-16T01:17:02;11.10;99.90
44037;DHT22;62488;-37.670;-63.532;2023-04-16T01:19:29;11.00;99.90
44037;DHT22;62488;-37.670;-63.532;2023-04-16T01:21:58;11.00;99.90
44037;DHT22;62488;-37.670;-63.532;2023-04-16T01:24:25;10.90;99.90
44037;DHT22;62488;-37.670;-63.532;2023-04-16T01:26:52;10.90;99.90
44037;DHT22;62488;-37.670;-63.532;2023-04-16T01:29:19;10.90;99.90
44037;DHT22;62488;-37.670;-63.532;2023-04-16T01:31:46;10.80;99.90
44037;DHT22;62488;-37.670;-63.532;2023-04-16T01:34:13;10.80;99.90
44037;DHT22;62488;-37.670;-63.532;2023-04-16T01:36:40;10.80;99.90
44037;DHT22;62488;-37.670;-63.532;2023-04-16T01:39:07;10.60;99.90
44037;DHT22;62488;-37.670;-63.532;2023-04-16T01:41:40;10.70;99.90
44037;DHT22;62488;-37.670;-63.532;2023-04-16T01:44:08;10.70;99.90
44037;DHT22;62488;-37.670;-63.532;2023-04-16T01:46:35;10.60;99.90
44037;DHT22;62488;-37.670;-63.532;2023-04-16T01:49:04;10.60;99.90
44037;DHT22;62488;-37.670;-63.532;2023-04-16T01:51:32;10.60;99.90
44037;DHT22;62488;-37.670;-63.532;2023-04-16T01:53:59;10.50;99.90
44037;DHT22;62488;-37.670;-63.532;2023-04-16T01:56:26;10.40;99.90
44037;DHT22;62488;-37.670;-63.532;2023-04-16T01:58:53;10.60;99.90
44037;DHT22;62488;-37.670;-63.532;2023-04-16T02:01:21;10.60;99.90
44037;DHT22;62488;-37.670;-63.532;2023-04-16T02:03:48;10.70;99.90
44037;DHT22;62488;-37.670;-63.532;2023-04-16T02:06:15;10.60;99.90
44037;DHT22;62488;-37.670;-63.532;2023-04-16T02:08:42;10.70;99.90
44037;DHT22;62488;-37.670;-63.532;2023-04-16T02:11:09;10.60;99.90
44037;DHT22;62488;-37.670;-63.532;2023-04-16T02:13:36;10.60;99.90
44037;DHT22;62488;-37.670;-63.532;2023-04-16T02:16:03;10.50;99.90
44037;DHT22;62488;-37.670;-63.532;2023-04-16T02:18:30;10.50;99.90
44037;DHT22;62488;-37.670;-63.532;2023-04-16T02:20:58;10.50;99.90
44037;DHT22;62488;-37.670;-63.532;2023-04-16T02:23:25;10.40;99.90
44037;DHT22;62488;-37.670;-63.532;2023-04-16T02:25:52;10.30;99.90
44037;DHT22;62488;-37.670;-63.532;2023-04-16T02:28:19;10.30;99.90
44037;DHT22;62488;-37.670;-63.532;2023-04-16T02:30:46;10.30;99.90
44037;DHT22;62488;-37.670;-63.532;2023-04-16T02:33:13;10.30;99.90
44037;DHT22;62488;-37.670;-63.532;2023-04-16T02:35:41;10.30;99.90
44037;DHT22;62488;-37.670;-63.532;2023-04-16T02:38:08;10.30;99.90
44037;DHT22;62488;-37.670;-63.532;2023-04-16T02:40:35;10.30;99.90
44037;DHT22;62488;-37.670;-63.532;2023-04-16T02:43:02;10.20;99.90
44037;DHT22;62488;-37.670;-63.532;2023-04-16T02:45:29;10.20;99.90
44037;DHT22;62488;-37.670;-63.532;2023-04-16T02:47:57;10.10;99.90
44037;DHT22;62488;-37.670;-63.532;2023-04-16T02:50:24;10.10;99.90
44037;DHT22;62488;-37.670;-63.532;2023-04-16T02:52:51;10.10;99.90
44037;DHT22;62488;-37.670;-63.532;2023-04-16T02:55:18;10.10;99.90
44037;DHT22;62488;-37.670;-63.532;2023-04-16T02:57:45;10.00;99.90
44037;DHT22;62488;-37.670;-63.532;2023-04-16T03:00:13;10.00;99.90
44037;DHT22;62488;-37.670;-63.532;2023-04-16T03:02:40;9.90;99.90
44037;DHT22;62488;-37.670;-63.532;2023-04-16T03:05:08;9.80;99.90
44037;DHT22;62488;-37.670;-63.532;2023-04-16T03:07:35;9.70;99.90
44037;DHT22;62488;-37.670;-63.532;2023-04-16T03:10:05;9.60;99.90
44037;DHT22;62488;-37.670;-63.532;2023-04-16T03:12:32;9.50;99.90
44037;DHT22;62488;-37.670;-63.532;2023-04-16T03:14:59;9.50;99.90
44037;DHT22;62488;-37.670;-63.532;2023-04-16T03:17:26;9.40;99.90
44037;DHT22;62488;-37.670;-63.532;2023-04-16T03:19:53;9.40;99.90
44037;DHT22;62488;-37.670;-63.532;2023-04-16T03:22:20;9.30;99.90
44037;DHT22;62488;-37.670;-63.532;2023-04-16T03:24:47;9.30;99.90
44037;DHT22;62488;-37.670;-63.532;2023-04-16T03:27:15;9.20;99.90
44037;DHT22;62488;-37.670;-63.532;2023-04-16T03:29:42;9.20;99.90
44037;DHT22;62488;-37.670;-63.532;2023-04-16T03:32:09;9.10;99.90
44037;DHT22;62488;-37.670;-63.532;2023-04-16T03:34:38;9.10;99.90
44037;DHT22;62488;-37.670;-63.532;2023-04-16T03:37:05;9.00;99.90
44037;DHT22;62488;-37.670;-63.532;2023-04-16T03:39:34;9.10;99.90
44037;DHT22;62488;-37.670;-63.532;2023-04-16T03:42:01;9.00;99.90
44037;DHT22;62488;-37.670;-63.532;2023-04-16T03:44:29;8.90;99.90
44037;DHT22;62488;-37.670;-63.532;2023-04-16T03:46:56;8.90;99.90
44037;DHT22;62488;-37.670;-63.532;2023-04-16T03:49:23;8.80;99.90
44037;DHT22;62488;-37.670;-63.532;2023-04-16T03:51:50;8.80;99.90
44037;DHT22;62488;-37.670;-63.532;2023-04-16T03:54:17;8.80;99.90
44037;DHT22;62488;-37.670;-63.532;2023-04-16T03:56:44;8.80;99.90
44037;DHT22;62488;-37.670;-63.532;2023-04-16T03:59:11;8.70;99.90
44037;DHT22;62488;-37.670;-63.532;2023-04-16T04:01:38;8.80;99.90
44037;DHT22;62488;-37.670;-63.532;2023-04-16T04:04:05;8.80;99.90
44037;DHT22;62488;-37.670;-63.532;2023-04-16T04:06:32;8.80;99.90
44037;DHT22;62488;-37.670;-63.532;2023-04-16T04:08:59;8.80;99.90
44037;DHT22;62488;-37.670;-63.532;2023-04-16T04:11:26;8.80;99.90
44037;DHT22;62488;-37.670;-63.532;2023-04-16T04:13:53;8.80;99.90
44037;DHT22;62488;-37.670;-63.532;2023-04-16T04:16:20;8.80;99.90
44037;DHT22;62488;-37.670;-63.532;2023-04-16T04:18:47;8.80;99.90
44037;DHT22;62488;-37.670;-63.532;2023-04-16T04:21:14;8.80;99.90
44037;DHT22;62488;-37.670;-63.532;2023-04-16T04:23:41;8.80;99.90
44037;DHT22;62488;-37.670;-63.532;2023-04-16T04:26:09;8.80;99.90
44037;DHT22;62488;-37.670;-63.532;2023-04-16T04:28:36;8.70;99.90
44037;DHT22;62488;-37.670;-63.532;2023-04-16T04:31:03;8.70;99.90
44037;DHT22;62488;-37.670;-63.532;2023-04-16T04:33:30;8.70;99.90
44037;DHT22;62488;-37.670;-63.532;2023-04-16T04:35:57;8.70;99.90
44037;DHT22;62488;-37.670;-63.532;2023-04-16T04:38:24;8.70;99.90
44037;DHT22;62488;-37.670;-63.532;2023-04-16T04:40:51;8.70;99.90
44037;DHT22;62488;-37.670;-63.532;2023-04-16T04:43:22;8.70;99.90
44037;DHT22;62488;-37.670;-63.532;2023-04-16T04:45:49;8.60;99.90
44037;DHT22;62488;-37.670;-63.532;2023-04-16T04:48:16;8.60;99.90
44037;DHT22;62488;-37.670;-63.532;2023-04-16T04:50:44;8.60;99.90
44037;DHT22;62488;-37.670;-63.532;2023-04-16T04:53:11;8.60;99.90
44037;DHT22;62488;-37.670;-63.532;2023-04-16T04:55:40;8.60;99.90
44037;DHT22;62488;-37.670;-63.532;2023-04-16T04:58:07;8.60;99.90
44037;DHT22;62488;-37.670;-63.532;2023-04-16T05:00:35;8.60;99.90
44037;DHT22;62488;-37.670;-63.532;2023-04-16T05:03:05;8.60;99.90
44037;DHT22;62488;-37.670;-63.532;2023-04-16T05:05:32;8.60;99.90
44037;DHT22;62488;-37.670;-63.532;2023-04-16T05:07:59;8.60;99.90
44037;DHT22;62488;-37.670;-63.532;2023-04-16T05:10:26;8.70;99.90
44037;DHT22;62488;-37.670;-63.532;2023-04-16T05:12:53;8.70;99.90
44037;DHT22;62488;-37.670;-63.532;2023-04-16T05:15:20;8.70;99.90
44037;DHT22;62488;-37.670;-63.532;2023-04-16T05:17:47;8.60;99.90
44037;DHT22;62488;-37.670;-63.532;2023-04-16T05:20:14;8.60;99.90
44037;DHT22;62488;-37.670;-63.532;2023-04-16T05:22:41;8.60;99.90
44037;DHT22;62488;-37.670;-63.532;2023-04-16T05:25:09;8.50;99.90
44037;DHT22;62488;-37.670;-63.532;2023-04-16T05:27:37;8.40;99.90
44037;DHT22;62488;-37.670;-63.532;2023-04-16T05:30:05;8.40;99.90
44037;DHT22;62488;-37.670;-63.532;2023-04-16T05:32:32;8.30;99.90
44037;DHT22;62488;-37.670;-63.532;2023-04-16T05:34:59;8.20;99.90
44037;DHT22;62488;-37.670;-63.532;2023-04-16T05:37:26;8.20;99.90
44037;DHT22;62488;-37.670;-63.532;2023-04-16T05:39:53;8.10;99.90
44037;DHT22;62488;-37.670;-63.532;2023-04-16T05:42:20;8.10;99.90
44037;DHT22;62488;-37.670;-63.532;2023-04-16T05:44:47;8.10;99.90
44037;DHT22;62488;-37.670;-63.532;2023-04-16T05:47:14;8.20;99.90
44037;DHT22;62488;-37.670;-63.532;2023-04-16T05:49:41;8.20;99.90
44037;DHT22;62488;-37.670;-63.532;2023-04-16T05:52:08;8.20;99.90
44037;DHT22;62488;-37.670;-63.532;2023-04-16T05:54:35;8.10;99.90
44037;DHT22;62488;-37.670;-63.532;2023-04-16T05:57:03;8.10;99.90
44037;DHT22;62488;-37.670;-63.532;2023-04-16T05:59:30;8.10;99.90
44037;DHT22;62488;-37.670;-63.532;2023-04-16T06:01:57;8.10;99.90
44037;DHT22;62488;-37.670;-63.532;2023-04-16T06:04:24;8.10;99.90
44037;DHT22;62488;-37.670;-63.532;2023-04-16T06:06:51;8.10;99.90
44037;DHT22;62488;-37.670;-63.532;2023-04-16T06:09:18;8.10;99.90
44037;DHT22;62488;-37.670;-63.532;2023-04-16T06:11:45;8.10;99.90
44037;DHT22;62488;-37.670;-63.532;2023-04-16T06:14:12;8.10;99.90
44037;DHT22;62488;-37.670;-63.532;2023-04-16T06:16:39;8.00;99.90
44037;DHT22;62488;-37.670;-63.532;2023-04-16T06:19:06;8.10;99.90
44037;DHT22;62488;-37.670;-63.532;2023-04-16T06:21:33;8.00;99.90
44037;DHT22;62488;-37.670;-63.532;2023-04-16T06:24:00;8.00;99.90
44037;DHT22;62488;-37.670;-63.532;2023-04-16T06:26:27;8.00;99.90
44037;DHT22;62488;-37.670;-63.532;2023-04-16T06:28:56;8.00;99.90
44037;DHT22;62488;-37.670;-63.532;2023-04-16T06:31:24;8.00;99.90
44037;DHT22;62488;-37.670;-63.532;2023-04-16T06:33:51;7.90;99.90
44037;DHT22;62488;-37.670;-63.532;2023-04-16T06:36:18;7.90;99.90
44037;DHT22;62488;-37.670;-63.532;2023-04-16T06:38:45;7.90;99.90
44037;DHT22;62488;-37.670;-63.532;2023-04-16T06:41:13;8.00;99.90
44037;DHT22;62488;-37.670;-63.532;2023-04-16T06:43:40;8.10;99.90
44037;DHT22;62488;-37.670;-63.532;2023-04-16T06:46:07;8.20;99.90
44037;DHT22;62488;-37.670;-63.532;2023-04-16T06:48:34;8.30;99.90
44037;DHT22;62488;-37.670;-63.532;2023-04-16T06:51:01;8.30;99.90
44037;DHT22;62488;-37.670;-63.532;2023-04-16T06:53:29;8.30;99.90
44037;DHT22;62488;-37.670;-63.532;2023-04-16T06:55:56;8.30;99.90
44037;DHT22;62488;-37.670;-63.532;2023-04-16T06:58:23;8.30;99.90
44037;DHT22;62488;-37.670;-63.532;2023-04-16T07:00:50;8.40;99.90
44037;DHT22;62488;-37.670;-63.532;2023-04-16T07:03:17;8.30;99.90
44037;DHT22;62488;-37.670;-63.532;2023-04-16T07:05:44;8.30;99.90
44037;DHT22;62488;-37.670;-63.532;2023-04-16T07:08:11;8.40;99.90
44037;DHT22;62488;-37.670;-63.532;2023-04-16T07:10:38;8.40;99.90
44037;DHT22;62488;-37.670;-63.532;2023-04-16T07:13:05;8.40;99.90
44037;DHT22;62488;-37.670;-63.532;2023-04-16T07:15:32;8.40;99.90
44037;DHT22;62488;-37.670;-63.532;2023-04-16T07:17:59;8.50;99.90
44037;DHT22;62488;-37.670;-63.532;2023-04-16T07:20:26;8.60;99.90
44037;DHT22;62488;-37.670;-63.532;2023-04-16T07:22:53;8.50;99.90
44037;DHT22;62488;-37.670;-63.532;2023-04-16T07:25:20;8.60;99.90
44037;DHT22;62488;-37.670;-63.532;2023-04-16T07:27:47;8.60;99.90
44037;DHT22;62488;-37.670;-63.532;2023-04-16T07:30:14;8.70;99.90
44037;DHT22;62488;-37.670;-63.532;2023-04-16T07:32:42;8.70;99.90
44037;DHT22;62488;-37.670;-63.532;2023-04-16T07:35:09;8.60;99.90
44037;DHT22;62488;-37.670;-63.532;2023-04-16T07:37:36;8.60;99.90
44037;DHT22;62488;-37.670;-63.532;2023-04-16T07:40:03;8.70;99.90
44037;DHT22;62488;-37.670;-63.532;2023-04-16T07:42:30;8.60;99.90
44037;DHT22;62488;-37.670;-63.532;2023-04-16T07:44:58;8.60;99.90
44037;DHT22;62488;-37.670;-63.532;2023-04-16T07:47:25;8.50;99.90
44037;DHT22;62488;-37.670;-63.532;2023-04-16T07:49:52;8.50;99.90
44037;DHT22;62488;-37.670;-63.532;2023-04-16T07:52:19;8.50;99.90
44037;DHT22;62488;-37.670;-63.532;2023-04-16T07:54:46;8.40;99.90
44037;DHT22;62488;-37.670;-63.532;2023-04-16T07:57:13;8.40;99.90
44037;DHT22;62488;-37.670;-63.532;2023-04-16T07:59:41;8.40;99.90
44037;DHT22;62488;-37.670;-63.532;2023-04-16T08:02:13;8.50;99.90
44037;DHT22;62488;-37.670;-63.532;2023-04-16T08:04:41;8.60;99.90
44037;DHT22;62488;-37.670;-63.532;2023-04-16T08:07:08;8.60;99.90
44037;DHT22;62488;-37.670;-63.532;2023-04-16T08:09:35;8.70;99.90
44037;DHT22;62488;-37.670;-63.532;2023-04-16T08:12:03;8.70;99.90
44037;DHT22;62488;-37.670;-63.532;2023-04-16T08:14:30;8.70;99.90
44037;DHT22;62488;-37.670;-63.532;2023-04-16T08:16:57;8.60;99.90
44037;DHT22;62488;-37.670;-63.532;2023-04-16T08:19:24;8.60;99.90
44037;DHT22;62488;-37.670;-63.532;2023-04-16T08:21:51;8.60;99.90
44037;DHT22;62488;-37.670;-63.532;2023-04-16T08:24:18;8.60;99.90
44037;DHT22;62488;-37.670;-63.532;2023-04-16T08:26:45;8.60;99.90
44037;DHT22;62488;-37.670;-63.532;2023-04-16T08:29:12;8.60;99.90
44037;DHT22;62488;-37.670;-63.532;2023-04-16T08:31:39;8.60;99.90
44037;DHT22;62488;-37.670;-63.532;2023-04-16T08:34:06;8.70;99.90
44037;DHT22;62488;-37.670;-63.532;2023-04-16T08:36:33;8.70;99.90
44037;DHT22;62488;-37.670;-63.532;2023-04-16T08:39:01;8.80;99.90
44037;DHT22;62488;-37.670;-63.532;2023-04-16T08:41:31;8.80;99.90
44037;DHT22;62488;-37.670;-63.532;2023-04-16T08:44:06;8.90;99.90
44037;DHT22;62488;-37.670;-63.532;2023-04-16T08:46:36;8.90;99.90
44037;DHT22;62488;-37.670;-63.532;2023-04-16T08:49:06;9.00;99.90
44037;DHT22;62488;-37.670;-63.532;2023-04-16T08:51:34;9.10;99.90
44037;DHT22;62488;-37.670;-63.532;2023-04-16T08:54:08;9.20;99.90
44037;DHT22;62488;-37.670;-63.532;2023-04-16T08:56:39;9.40;99.90
44037;DHT22;62488;-37.670;-63.532;2023-04-16T08:59:08;9.40;99.90
44037;DHT22;62488;-37.670;-63.532;2023-04-16T09:01:36;9.40;99.90
44037;DHT22;62488;-37.670;-63.532;2023-04-16T09:04:06;9.50;99.90
44037;DHT22;62488;-37.670;-63.532;2023-04-16T09:06:34;9.50;99.90
44037;DHT22;62488;-37.670;-63.532;2023-04-16T09:09:03;9.50;99.90
44037;DHT22;62488;-37.670;-63.532;2023-04-16T09:11:31;9.60;99.90
44037;DHT22;62488;-37.670;-63.532;2023-04-16T09:13:59;9.60;99.90
44037;DHT22;62488;-37.670;-63.532;2023-04-16T09:16:27;9.60;99.90
44037;DHT22;62488;-37.670;-63.532;2023-04-16T09:18:56;9.60;99.90
44037;DHT22;62488;-37.670;-63.532;2023-04-16T09:21:23;9.60;99.90
44037;DHT22;62488;-37.670;-63.532;2023-04-16T09:23:52;9.60;99.90
44037;DHT22;62488;-37.670;-63.532;2023-04-16T09:26:19;9.50;99.90
44037;DHT22;62488;-37.670;-63.532;2023-04-16T09:28:48;9.40;99.90
44037;DHT22;62488;-37.670;-63.532;2023-04-16T09:31:20;9.40;99.90
44037;DHT22;62488;-37.670;-63.532;2023-04-16T09:34:07;9.40;99.90
44037;DHT22;62488;-37.670;-63.532;2023-04-16T09:36:35;9.30;99.90
44037;DHT22;62488;-37.670;-63.532;2023-04-16T09:39:03;9.30;99.90
44037;DHT22;62488;-37.670;-63.532;2023-04-16T09:41:31;9.20;99.90
44037;DHT22;62488;-37.670;-63.532;2023-04-16T09:44:03;9.20;99.90
44037;DHT22;62488;-37.670;-63.532;2023-04-16T09:46:33;9.20;99.90
44037;DHT22;62488;-37.670;-63.532;2023-04-16T09:49:14;9.20;99.90
44037;DHT22;62488;-37.670;-63.532;2023-04-16T09:51:45;9.10;99.90
44037;DHT22;62488;-37.670;-63.532;2023-04-16T09:54:13;9.00;99.90
44037;DHT22;62488;-37.670;-63.532;2023-04-16T09:56:42;9.00;99.90
44037;DHT22;62488;-37.670;-63.532;2023-04-16T09:59:19;9.00;99.90
44037;DHT22;62488;-37.670;-63.532;2023-04-16T10:01:47;8.90;99.90
44037;DHT22;62488;-37.670;-63.532;2023-04-16T10:04:15;8.80;99.90
44037;DHT22;62488;-37.670;-63.532;2023-04-16T10:06:42;8.70;99.90
44037;DHT22;62488;-37.670;-63.532;2023-04-16T10:09:09;8.70;99.90
44037;DHT22;62488;-37.670;-63.532;2023-04-16T10:11:37;8.60;99.90
44037;DHT22;62488;-37.670;-63.532;2023-04-16T10:14:05;8.50;99.90
44037;DHT22;62488;-37.670;-63.532;2023-04-16T10:16:32;8.50;99.90
44037;DHT22;62488;-37.670;-63.532;2023-04-16T10:19:00;8.40;99.90
44037;DHT22;62488;-37.670;-63.532;2023-04-16T10:21:27;8.30;99.90
44037;DHT22;62488;-37.670;-63.532;2023-04-16T10:23:59;8.20;99.90
44037;DHT22;62488;-37.670;-63.532;2023-04-16T10:26:28;8.20;99.90
44037;DHT22;62488;-37.670;-63.532;2023-04-16T10:28:57;8.20;99.90
44037;DHT22;62488;-37.670;-63.532;2023-04-16T10:31:26;8.10;99.90
44037;DHT22;62488;-37.670;-63.532;2023-04-16T10:33:54;8.10;99.90
44037;DHT22;62488;-37.670;-63.532;2023-04-16T10:36:25;8.00;99.90
44037;DHT22;62488;-37.670;-63.532;2023-04-16T10:38:56;8.00;99.90
44037;DHT22;62488;-37.670;-63.532;2023-04-16T10:41:25;8.00;99.90
44037;DHT22;62488;-37.670;-63.532;2023-04-16T10:43:55;8.00;99.90
44037;DHT22;62488;-37.670;-63.532;2023-04-16T10:46:40;7.90;99.90
44037;DHT22;62488;-37.670;-63.532;2023-04-16T10:49:23;7.90;99.90
44037;DHT22;62488;-37.670;-63.532;2023-04-16T10:51:55;8.00;99.90
44037;DHT22;62488;-37.670;-63.532;2023-04-16T10:54:33;8.00;99.90
44037;DHT22;62488;-37.670;-63.532;2023-04-16T10:57:08;8.00;99.90
44037;DHT22;62488;-37.670;-63.532;2023-04-16T10:59:37;8.00;99.90
44037;DHT22;62488;-37.670;-63.532;2023-04-16T11:02:13;8.10;99.90
44037;DHT22;62488;-37.670;-63.532;2023-04-16T11:04:44;8.20;99.90
44037;DHT22;62488;-37.670;-63.532;2023-04-16T11:07:14;8.20;99.90
44037;DHT22;62488;-37.670;-63.532;2023-04-16T11:09:44;8.40;99.90
44037;DHT22;62488;-37.670;-63.532;2023-04-16T11:12:17;8.60;99.90
44037;DHT22;62488;-37.670;-63.532;2023-04-16T11:14:58;8.70;99.90
44037;DHT22;62488;-37.670;-63.532;2023-04-16T11:17:53;8.80;99.90
44037;DHT22;62488;-37.670;-63.532;2023-04-16T11:20:21;9.00;99.90
44037;DHT22;62488;-37.670;-63.532;2023-04-16T11:22:50;9.00;99.90
44037;DHT22;62488;-37.670;-63.532;2023-04-16T11:27:52;9.20;99.90
44037;DHT22;62488;-37.670;-63.532;2023-04-16T11:30:32;9.30;99.90
44037;DHT22;62488;-37.670;-63.532;2023-04-16T11:33:10;9.30;99.90
44037;DHT22;62488;-37.670;-63.532;2023-04-16T11:35:38;9.30;99.90
44037;DHT22;62488;-37.670;-63.532;2023-04-16T11:38:05;9.30;99.90
44037;DHT22;62488;-37.670;-63.532;2023-04-16T11:40:33;9.30;99.90
44037;DHT22;62488;-37.670;-63.532;2023-04-16T11:43:14;9.30;99.90
44037;DHT22;62488;-37.670;-63.532;2023-04-16T11:46:01;9.30;99.90
44037;DHT22;62488;-37.670;-63.532;2023-04-16T11:48:52;9.30;99.90
44037;DHT22;62488;-37.670;-63.532;2023-04-16T11:51:20;9.40;99.90
44037;DHT22;62488;-37.670;-63.532;2023-04-16T11:53:52;9.40;99.90
44037;DHT22;62488;-37.670;-63.532;2023-04-16T11:56:30;9.50;99.90
44037;DHT22;62488;-37.670;-63.532;2023-04-16T11:59:12;9.70;99.90
44037;DHT22;62488;-37.670;-63.532;2023-04-16T12:01:44;10.10;99.90
44037;DHT22;62488;-37.670;-63.532;2023-04-16T12:04:13;10.70;99.90
44037;DHT22;62488;-37.670;-63.532;2023-04-16T12:07:07;11.20;99.90
44037;DHT22;62488;-37.670;-63.532;2023-04-16T12:09:36;11.50;99.90
44037;DHT22;62488;-37.670;-63.532;2023-04-16T12:12:03;11.90;99.90
44037;DHT22;62488;-37.670;-63.532;2023-04-16T12:14:31;12.20;99.90
44037;DHT22;62488;-37.670;-63.532;2023-04-16T12:17:19;12.50;99.90
44037;DHT22;62488;-37.670;-63.532;2023-04-16T12:19:59;12.60;99.90
44037;DHT22;62488;-37.670;-63.532;2023-04-16T12:22:29;12.80;99.90
44037;DHT22;62488;-37.670;-63.532;2023-04-16T12:25:04;13.00;99.90
44037;DHT22;62488;-37.670;-63.532;2023-04-16T12:27:53;13.40;99.90
44037;DHT22;62488;-37.670;-63.532;2023-04-16T12:30:23;13.80;99.90
44037;DHT22;62488;-37.670;-63.532;2023-04-16T12:33:14;13.90;99.90
44037;DHT22;62488;-37.670;-63.532;2023-04-16T12:35:42;14.00;99.90
44037;DHT22;62488;-37.670;-63.532;2023-04-16T12:38:10;14.30;99.90
44037;DHT22;62488;-37.670;-63.532;2023-04-16T12:40:39;14.40;99.90
44037;DHT22;62488;-37.670;-63.532;2023-04-16T12:43:07;14.50;99.90
44037;DHT22;62488;-37.670;-63.532;2023-04-16T12:45:34;14.60;99.90
44037;DHT22;62488;-37.670;-63.532;2023-04-16T12:48:02;15.00;99.90
44037;DHT22;62488;-37.670;-63.532;2023-04-16T12:50:29;15.20;99.90
44037;DHT22;62488;-37.670;-63.532;2023-04-16T12:52:57;15.30;99.90
44037;DHT22;62488;-37.670;-63.532;2023-04-16T12:55:24;15.30;99.90
44037;DHT22;62488;-37.670;-63.532;2023-04-16T12:57:52;15.50;99.90
44037;DHT22;62488;-37.670;-63.532;2023-04-16T13:00:20;15.70;99.90
44037;DHT22;62488;-37.670;-63.532;2023-04-16T13:02:47;16.10;99.90
44037;DHT22;62488;-37.670;-63.532;2023-04-16T13:05:14;16.00;99.90
44037;DHT22;62488;-37.670;-63.532;2023-04-16T13:07:44;16.40;99.90
44037;DHT22;62488;-37.670;-63.532;2023-04-16T13:10:11;16.90;99.90
44037;DHT22;62488;-37.670;-63.532;2023-04-16T13:12:39;17.20;99.90
44037;DHT22;62488;-37.670;-63.532;2023-04-16T13:15:06;17.60;99.90
44037;DHT22;62488;-37.670;-63.532;2023-04-16T13:17:33;17.60;99.90
44037;DHT22;62488;-37.670;-63.532;2023-04-16T13:20:01;17.70;99.90
44037;DHT22;62488;-37.670;-63.532;2023-04-16T13:22:28;17.70;99.90
44037;DHT22;62488;-37.670;-63.532;2023-04-16T13:24:55;17.90;99.90
44037;DHT22;62488;-37.670;-63.532;2023-04-16T13:27:22;17.90;99.90
44037;DHT22;62488;-37.670;-63.532;2023-04-16T13:29:49;18.00;99.90
44037;DHT22;62488;-37.670;-63.532;2023-04-16T13:32:16;18.00;99.90
44037;DHT22;62488;-37.670;-63.532;2023-04-16T13:34:44;18.40;99.90
44037;DHT22;62488;-37.670;-63.532;2023-04-16T13:37:11;18.60;99.90
44037;DHT22;62488;-37.670;-63.532;2023-04-16T13:39:38;18.70;99.90
44037;DHT22;62488;-37.670;-63.532;2023-04-16T13:42:05;18.90;99.90
44037;DHT22;62488;-37.670;-63.532;2023-04-16T13:44:32;19.10;99.90
44037;DHT22;62488;-37.670;-63.532;2023-04-16T13:46:59;19.40;99.90
44037;DHT22;62488;-37.670;-63.532;2023-04-16T13:49:26;19.40;99.90
44037;DHT22;62488;-37.670;-63.532;2023-04-16T13:51:53;19.40;99.90
44037;DHT22;62488;-37.670;-63.532;2023-04-16T13:54:20;19.70;99.60
44037;DHT22;62488;-37.670;-63.532;2023-04-16T13:56:49;19.80;99.50
44037;DHT22;62488;-37.670;-63.532;2023-04-16T13:59:17;19.70;99.20
44037;DHT22;62488;-37.670;-63.532;2023-04-16T14:01:44;19.80;98.70
44037;DHT22;62488;-37.670;-63.532;2023-04-16T14:04:11;19.80;99.10
44037;DHT22;62488;-37.670;-63.532;2023-04-16T14:06:39;19.90;99.00
44037;DHT22;62488;-37.670;-63.532;2023-04-16T14:09:06;20.30;97.70
44037;DHT22;62488;-37.670;-63.532;2023-04-16T14:11:35;20.50;97.30
44037;DHT22;62488;-37.670;-63.532;2023-04-16T14:14:03;20.50;97.00
44037;DHT22;62488;-37.670;-63.532;2023-04-16T14:16:30;20.50;96.50
44037;DHT22;62488;-37.670;-63.532;2023-04-16T14:18:57;20.70;97.00
44037;DHT22;62488;-37.670;-63.532;2023-04-16T14:21:25;20.60;95.90
44037;DHT22;62488;-37.670;-63.532;2023-04-16T14:23:52;20.50;95.60
44037;DHT22;62488;-37.670;-63.532;2023-04-16T14:26:21;20.30;95.80
44037;DHT22;62488;-37.670;-63.532;2023-04-16T14:28:48;20.60;95.80
44037;DHT22;62488;-37.670;-63.532;2023-04-16T14:31:16;20.90;95.10
44037;DHT22;62488;-37.670;-63.532;2023-04-16T14:33:43;21.00;94.20
44037;DHT22;62488;-37.670;-63.532;2023-04-16T14:36:10;21.00;94.40
44037;DHT22;62488;-37.670;-63.532;2023-04-16T14:38:37;20.90;93.70
44037;DHT22;62488;-37.670;-63.532;2023-04-16T14:41:04;21.30;92.80
44037;DHT22;62488;-37.670;-63.532;2023-04-16T14:43:32;21.10;93.40
44037;DHT22;62488;-37.670;-63.532;2023-04-16T14:45:59;21.20;93.10
44037;DHT22;62488;-37.670;-63.532;2023-04-16T14:48:26;21.50;93.50
44037;DHT22;62488;-37.670;-63.532;2023-04-16T14:50:53;22.10;93.70
44037;DHT22;62488;-37.670;-63.532;2023-04-16T14:53:22;22.20;91.10
44037;DHT22;62488;-37.670;-63.532;2023-04-16T14:55:51;21.80;92.20
44037;DHT22;62488;-37.670;-63.532;2023-04-16T14:58:18;21.70;92.30
44037;DHT22;62488;-37.670;-63.532;2023-04-16T15:11:45;21.90;92.20
44037;DHT22;62488;-37.670;-63.532;2023-04-16T15:14:12;22.50;90.50
44037;DHT22;62488;-37.670;-63.532;2023-04-16T15:16:39;21.70;90.80